Dades meteomassalio
Diari Summary for Abril 8, 2017 Units:  Metric    English   Both
« Previous Day
Next Day »
Diari Semanal Mensual Anual Personalitzat
  Maxima: Minima: Mijana:
Temperatura: 23.8 °C 11.3 °C 20.2 °C
Rosada: 6.1 °C -0.7 °C 2.1 °C
Humitat: 67 % 20 % 32 %
Velocitat del vent: 24.1 km/h 0.0 km/h 10.6 km/h
Racha vent: 24.1 km/h - -
Vent:- - ESE
Pressio: 1022.6 hPa 1018.8 hPa -
Pluja: 0.0 mm    
Historical Graphs
 
 
Tabular Data for Abril 8, 2017
Time Temperature Dew Point Pressure Wind Wind Speed Wind Gust Humidity Rainfall Rate (Hourly) solar Conditions
09:49 11.3 °C 5.4 °C 1022.6 hPa Calm     67 % 0.0 mm 381.0 W/m2 OVC
09:54 11.7 °C 5.3 °C 1022.6 hPa Calm     65 % 0.0 mm 399.0 W/m2 CLR
09:59 12.3 °C 5.5 °C 1022.6 hPa Calm     63 % 0.0 mm 415.0 W/m2 CLR
10:04 12.8 °C 5.7 °C 1022.6 hPa Calm     62 % 0.0 mm 432.0 W/m2 CLR
10:09 13.4 °C 6.1 °C 1022.2 hPa Calm     61 % 0.0 mm 450.0 W/m2 CLR
10:14 13.9 °C 5.8 °C 1022.2 hPa Calm     58 % 0.0 mm 466.0 W/m2 CLR
10:19 14.2 °C 5.6 °C 1022.2 hPa Calm     56 % 0.0 mm 482.0 W/m2 CLR
10:24 14.5 °C 5.3 °C 1022.2 hPa Calm     54 % 0.0 mm 494.0 W/m2 CLR
10:29 14.8 °C 5.0 °C 1022.2 hPa Calm     52 % 0.0 mm 508.0 W/m2 CLR
10:34 15.2 °C 5.4 °C 1022.2 hPa Calm     52 % 0.0 mm 524.0 W/m2 CLR
10:39 15.8 °C 5.1 °C 1022.2 hPa Calm     49 % 0.0 mm 540.0 W/m2 CLR
10:44 16.2 °C 4.9 °C 1022.2 hPa ENE 1.9 km/h   47 % 0.0 mm 554.0 W/m2 CLR
10:49 16.4 °C 3.2 °C 1022.2 hPa Calm     41 % 0.0 mm 570.0 W/m2 CLR
10:55 16.7 °C 4.1 °C 1022.2 hPa Calm     43 % 0.0 mm 585.0 W/m2 CLR
11:00 16.9 °C 3.6 °C 1021.9 hPa Calm     41 % 0.0 mm 599.0 W/m2 CLR
11:05 17.3 °C 3.9 °C 1021.9 hPa Calm     41 % 0.0 mm 608.0 W/m2 CLR
11:10 17.6 °C 3.5 °C 1021.9 hPa NE 8.0 km/h 8.0 km/h 39 % 0.0 mm 621.0 W/m2 CLR
11:15 17.9 °C 3.3 °C 1021.9 hPa ENE 5.6 km/h   38 % 0.0 mm 635.0 W/m2 CLR
11:20 18.3 °C 2.1 °C 1021.9 hPa Calm     34 % 0.0 mm 652.0 W/m2 CLR
11:25 18.7 °C 2.9 °C 1021.9 hPa Calm     35 % 0.0 mm 664.0 W/m2 CLR
11:30 19.2 °C 2.1 °C 1021.9 hPa Calm     32 % 0.0 mm 673.0 W/m2 CLR
11:35 19.6 °C 2.4 °C 1021.9 hPa Calm     32 % 0.0 mm 684.0 W/m2 CLR
11:40 19.8 °C 3.1 °C 1021.9 hPa Calm     33 % 0.0 mm 698.0 W/m2 CLR
11:45 19.9 °C 2.7 °C 1021.9 hPa ENE 3.7 km/h 3.7 km/h 32 % 0.0 mm 708.0 W/m2 CLR
11:50 20.1 °C 1.9 °C 1021.9 hPa Calm     30 % 0.0 mm 717.0 W/m2 CLR
11:55 20.2 °C 3.4 °C 1021.9 hPa ENE 9.3 km/h 9.3 km/h 33 % 0.0 mm 726.0 W/m2 CLR
12:00 20.5 °C 1.8 °C 1021.6 hPa ENE 5.6 km/h 5.6 km/h 29 % 0.0 mm 740.0 W/m2 CLR
12:05 20.8 °C 1.6 °C 1021.6 hPa NNE 5.6 km/h 5.6 km/h 28 % 0.0 mm 745.0 W/m2 CLR
12:10 21.0 °C 1.3 °C 1021.6 hPa NNE 5.6 km/h 5.6 km/h 27 % 0.0 mm 756.0 W/m2 CLR
12:15 21.1 °C 1.9 °C 1021.6 hPa ENE 9.3 km/h 9.3 km/h 28 % 0.0 mm 763.0 W/m2 CLR
12:20 21.1 °C 3.3 °C 1021.6 hPa ENE 11.3 km/h 11.3 km/h 31 % 0.0 mm 772.0 W/m2 CLR
12:25 21.2 °C 3.3 °C 1021.6 hPa NNE 7.4 km/h 7.4 km/h 31 % 0.0 mm 782.0 W/m2 CLR
12:30 21.3 °C 3.9 °C 1021.6 hPa ENE 11.1 km/h 11.1 km/h 32 % 0.0 mm 784.0 W/m2 CLR
12:35 21.4 °C 4.9 °C 1021.6 hPa Calm     34 % 0.0 mm 789.0 W/m2 CLR
12:40 21.5 °C 4.9 °C 1021.6 hPa North 3.7 km/h 3.7 km/h 34 % 0.0 mm 803.0 W/m2 CLR
12:45 21.7 °C 5.6 °C 1021.6 hPa ENE 5.6 km/h 5.6 km/h 35 % 0.0 mm 807.0 W/m2 CLR
12:50 21.6 °C 4.6 °C 1021.2 hPa Calm     33 % 0.0 mm 816.0 W/m2 CLR
12:55 21.7 °C 4.7 °C 1021.2 hPa NE 1.9 km/h 1.9 km/h 33 % 0.0 mm 819.0 W/m2 CLR
13:00 22.1 °C 4.6 °C 1021.2 hPa SE 7.4 km/h 7.4 km/h 32 % 0.0 mm 830.0 W/m2 CLR
13:05 22.0 °C 2.7 °C 1021.2 hPa SE 17.7 km/h 17.7 km/h 28 % 0.0 mm 835.0 W/m2 CLR
13:10 21.8 °C 1.9 °C 1021.2 hPa East 13.0 km/h 13.0 km/h 27 % 0.0 mm 838.0 W/m2 CLR
13:15 21.7 °C 2.4 °C 1021.2 hPa East 13.0 km/h 13.0 km/h 28 % 0.0 mm 838.0 W/m2 CLR
13:25 22.1 °C 2.7 °C 1020.9 hPa ENE 14.5 km/h 14.5 km/h 28 % 0.0 mm 847.0 W/m2 CLR
13:30 22.4 °C 3.4 °C 1020.9 hPa Calm     29 % 0.0 mm 849.0 W/m2 CLR
13:35 22.8 °C 4.3 °C 1020.9 hPa SSE 9.3 km/h 9.3 km/h 30 % 0.0 mm 856.0 W/m2 CLR
13:40 22.9 °C 1.8 °C 1020.5 hPa SSE 13.0 km/h 13.0 km/h 25 % 0.0 mm 858.0 W/m2 CLR
13:41 23.0 °C 1.9 °C 1020.9 hPa SSE 13.0 km/h 13.0 km/h 25 % 0.0 mm 856.0 W/m2 CLR
13:46 22.9 °C 2.9 °C 1020.5 hPa South 11.1 km/h 11.1 km/h 27 % 0.0 mm 856.0 W/m2 CLR
13:51 23.1 °C 4.6 °C 1020.5 hPa East 11.1 km/h 11.1 km/h 30 % 0.0 mm 860.0 W/m2 CLR
13:56 23.1 °C 1.4 °C 1020.5 hPa SSE 20.4 km/h 20.4 km/h 24 % 0.0 mm 867.0 W/m2 CLR
14:01 22.9 °C 0.7 °C 1020.5 hPa SSE 11.1 km/h 11.1 km/h 23 % 0.0 mm 867.0 W/m2 CLR
14:06 22.7 °C 1.1 °C 1020.5 hPa ESE 18.5 km/h 18.5 km/h 24 % 0.0 mm 863.0 W/m2 CLR
14:11 22.8 °C 1.2 °C 1020.5 hPa SE 5.6 km/h 5.6 km/h 24 % 0.0 mm 863.0 W/m2 CLR
14:16 22.9 °C 0.7 °C 1020.2 hPa ESE 14.8 km/h 14.8 km/h 23 % 0.0 mm 861.0 W/m2 CLR
14:21 23.1 °C 1.4 °C 1020.2 hPa SE 9.3 km/h 9.3 km/h 24 % 0.0 mm 861.0 W/m2 CLR
14:26 23.1 °C 1.4 °C 1020.2 hPa ESE 18.5 km/h 18.5 km/h 24 % 0.0 mm 861.0 W/m2 CLR
14:31 23.1 °C 1.4 °C 1020.2 hPa SE 13.0 km/h 13.0 km/h 24 % 0.0 mm 858.0 W/m2 CLR
14:36 23.1 °C 1.4 °C 1020.2 hPa SE 16.7 km/h 16.7 km/h 24 % 0.0 mm 856.0 W/m2 CLR
14:41 23.0 °C 0.7 °C 1020.2 hPa SSE 6.4 km/h 6.4 km/h 23 % 0.0 mm 849.0 W/m2 CLR
14:46 23.2 °C 0.9 °C 1020.2 hPa East 6.4 km/h 6.4 km/h 23 % 0.0 mm 842.0 W/m2 CLR
14:51 23.2 °C 0.9 °C 1019.9 hPa East 16.7 km/h 16.7 km/h 23 % 0.0 mm 838.0 W/m2 CLR
14:56 23.3 °C 1.6 °C 1019.9 hPa ENE 7.4 km/h 7.4 km/h 24 % 0.0 mm 833.0 W/m2 CLR
15:01 23.5 °C 1.8 °C 1019.9 hPa SE 12.9 km/h 12.9 km/h 24 % 0.0 mm 835.0 W/m2 CLR
15:06 23.5 °C 1.8 °C 1019.9 hPa East 13.0 km/h 13.0 km/h 24 % 0.0 mm 830.0 W/m2 CLR
15:11 23.3 °C -0.2 °C 1019.9 hPa SE 18.5 km/h 18.5 km/h 21 % 0.0 mm 821.0 W/m2 CLR
15:16 23.3 °C 0.3 °C 1019.9 hPa ESE 16.1 km/h 16.1 km/h 22 % 0.0 mm 814.0 W/m2 CLR
15:21 23.4 °C -0.2 °C 1019.9 hPa East 20.9 km/h 20.9 km/h 21 % 0.0 mm 809.0 W/m2 CLR
15:26 23.6 °C 0.0 °C 1019.5 hPa East 18.5 km/h 18.5 km/h 21 % 0.0 mm 803.0 W/m2 CLR
15:31 23.7 °C 0.1 °C 1019.5 hPa East 11.3 km/h 11.3 km/h 21 % 0.0 mm 793.0 W/m2 CLR
15:36 23.4 °C -0.2 °C 1019.5 hPa East 16.7 km/h 16.7 km/h 21 % 0.0 mm 788.0 W/m2 CLR
15:41 23.5 °C 0.6 °C 1019.5 hPa ENE 9.3 km/h 9.3 km/h 22 % 0.0 mm 782.0 W/m2 CLR
15:46 23.8 °C 0.1 °C 1019.5 hPa ESE 18.5 km/h 18.5 km/h 21 % 0.0 mm 773.0 W/m2 CLR
15:51 23.8 °C -0.6 °C 1019.5 hPa ESE 11.1 km/h 11.1 km/h 20 % 0.0 mm 768.0 W/m2 CLR
15:56 23.6 °C -0.7 °C 1019.5 hPa ESE 19.3 km/h 19.3 km/h 20 % 0.0 mm 756.0 W/m2 CLR
16:01 23.4 °C 0.5 °C 1019.5 hPa SE 7.4 km/h 7.4 km/h 22 % 0.0 mm 747.0 W/m2 CLR
16:06 23.6 °C 0.0 °C 1019.2 hPa ENE 11.1 km/h 11.1 km/h 21 % 0.0 mm 737.0 W/m2 CLR
16:11 23.8 °C 0.1 °C 1019.2 hPa ENE 13.0 km/h 13.0 km/h 21 % 0.0 mm 728.0 W/m2 CLR
16:16 23.8 °C 0.1 °C 1019.2 hPa SE 18.5 km/h 18.5 km/h 21 % 0.0 mm 719.0 W/m2 CLR
16:21 23.7 °C 0.7 °C 1019.2 hPa SE 13.0 km/h 13.0 km/h 22 % 0.0 mm 707.0 W/m2 CLR
16:22 23.7 °C 0.1 °C 1019.2 hPa ESE 13.0 km/h 13.0 km/h 21 % 0.0 mm 705.0 W/m2 CLR
16:26 23.6 °C 0.0 °C 1019.2 hPa ESE 20.4 km/h 20.4 km/h 21 % 0.0 mm 694.0 W/m2 CLR
16:31 23.5 °C 0.6 °C 1019.2 hPa SSE 22.2 km/h 22.2 km/h 22 % 0.0 mm 680.0 W/m2 CLR
16:36 23.6 °C -0.1 °C 1019.2 hPa East 13.0 km/h 13.0 km/h 21 % 0.0 mm 670.0 W/m2 CLR
16:37 23.6 °C -0.1 °C 1019.2 hPa ESE 16.7 km/h 16.7 km/h 21 % 0.0 mm 668.0 W/m2 CLR
16:42 23.6 °C 0.6 °C 1019.2 hPa SE 13.0 km/h 13.0 km/h 22 % 0.0 mm 656.0 W/m2 CLR
16:47 23.7 °C 0.7 °C 1019.2 hPa SE 16.7 km/h 16.7 km/h 22 % 0.0 mm 645.0 W/m2 CLR
16:52 23.5 °C 0.6 °C 1019.2 hPa East 13.0 km/h 13.0 km/h 22 % 0.0 mm 631.0 W/m2 CLR
16:57 23.5 °C 1.2 °C 1019.2 hPa East 18.5 km/h 18.5 km/h 23 % 0.0 mm 617.0 W/m2 CLR
17:02 23.4 °C 1.1 °C 1019.2 hPa East 9.3 km/h 9.3 km/h 23 % 0.0 mm 603.0 W/m2 CLR
17:12 23.3 °C 0.9 °C 1019.2 hPa ESE 22.2 km/h 22.2 km/h 23 % 0.0 mm 577.0 W/m2 CLR
17:17 23.3 °C 1.6 °C 1019.2 hPa ESE 18.5 km/h 18.5 km/h 24 % 0.0 mm 563.0 W/m2 CLR
17:22 23.2 °C 1.4 °C 1018.8 hPa SE 22.2 km/h 22.2 km/h 24 % 0.0 mm 550.0 W/m2 CLR
17:27 23.2 °C 1.4 °C 1018.8 hPa SE 24.1 km/h 24.1 km/h 24 % 0.0 mm 534.0 W/m2 CLR
17:32 23.2 °C 1.4 °C 1019.2 hPa SE 16.7 km/h 16.7 km/h 24 % 0.0 mm 520.0 W/m2 CLR
17:37 23.1 °C 1.4 °C 1019.2 hPa ESE 24.1 km/h 24.1 km/h 24 % 0.0 mm 504.0 W/m2 CLR
17:42 23.1 °C 1.4 °C 1018.8 hPa SE 22.2 km/h 22.2 km/h 24 % 0.0 mm 489.0 W/m2 CLR
17:47 23.1 °C 1.4 °C 1019.2 hPa SE 19.3 km/h 19.3 km/h 24 % 0.0 mm 471.0 W/m2 CLR
17:52 23.0 °C 1.3 °C 1019.2 hPa East 18.5 km/h 18.5 km/h 24 % 0.0 mm 457.0 W/m2 CLR
17:57 23.1 °C 1.4 °C 1019.2 hPa East 14.8 km/h 14.8 km/h 24 % 0.0 mm 441.0 W/m2 CLR
18:03 22.9 °C 0.7 °C 1019.2 hPa ESE 22.2 km/h 22.2 km/h 23 % 0.0 mm 427.0 W/m2 CLR
18:08 22.8 °C 1.2 °C 1019.2 hPa ESE 24.1 km/h 24.1 km/h 24 % 0.0 mm 411.0 W/m2 CLR
18:13 22.8 °C 1.2 °C 1019.2 hPa ESE 16.1 km/h 16.1 km/h 24 % 0.0 mm 392.0 W/m2 CLR
18:18 22.8 °C 0.6 °C 1019.2 hPa ESE 16.7 km/h 16.7 km/h 23 % 0.0 mm 376.0 W/m2 CLR
18:23 22.7 °C 0.4 °C 1019.2 hPa ESE 20.9 km/h 20.9 km/h 23 % 0.0 mm 360.0 W/m2 CLR
18:28 22.6 °C 0.4 °C 1019.2 hPa ESE 14.8 km/h 14.8 km/h 23 % 0.0 mm 345.0 W/m2 CLR
18:33 22.6 °C 1.0 °C 1019.2 hPa SE 16.7 km/h 16.7 km/h 24 % 0.0 mm 327.0 W/m2 CLR
18:38 22.4 °C 0.3 °C 1019.2 hPa ESE 18.5 km/h 18.5 km/h 23 % 0.0 mm 309.0 W/m2 CLR
18:43 22.4 °C 0.8 °C 1019.2 hPa SE 22.2 km/h 22.2 km/h 24 % 0.0 mm 294.0 W/m2 CLR
18:48 22.3 °C 1.3 °C 1019.2 hPa ESE 22.5 km/h 22.5 km/h 25 % 0.0 mm 276.0 W/m2 CLR
18:53 22.2 °C 0.6 °C 1019.2 hPa SE 22.2 km/h 22.2 km/h 24 % 0.0 mm 257.0 W/m2 CLR
18:58 22.1 °C 1.2 °C 1019.2 hPa SE 20.4 km/h 20.4 km/h 25 % 0.0 mm 239.0 W/m2 CLR
19:03 22.0 °C 1.1 °C 1019.5 hPa SE 20.9 km/h 20.9 km/h 25 % 0.0 mm 221.0 W/m2 CLR
19:08 21.9 °C 1.5 °C 1019.5 hPa SE 22.2 km/h 22.2 km/h 26 % 0.0 mm 207.0 W/m2 CLR
19:13 21.8 °C 1.4 °C 1019.5 hPa SE 18.5 km/h 18.5 km/h 26 % 0.0 mm 181.0 W/m2 CLR
19:23 21.6 °C 1.8 °C 1019.5 hPa SE 22.2 km/h 22.2 km/h 27 % 0.0 mm 146.0 W/m2 CLR
19:28 21.5 °C 1.7 °C 1019.5 hPa SE 16.7 km/h 16.7 km/h 27 % 0.0 mm 127.0 W/m2 CLR
19:33 21.3 °C 2.1 °C 1019.5 hPa SSE 22.2 km/h 22.2 km/h 28 % 0.0 mm 111.0 W/m2 CLR
19:38 21.2 °C 1.9 °C 1019.5 hPa SE 14.8 km/h 14.8 km/h 28 % 0.0 mm 91.0 W/m2 CLR
19:43 21.1 °C 1.9 °C 1019.5 hPa SE 13.0 km/h 13.0 km/h 28 % 0.0 mm 77.0 W/m2 FEW
19:48 21.0 °C 1.3 °C 1019.5 hPa SE 16.7 km/h 16.7 km/h 27 % 0.0 mm 51.0 W/m2 SCT
19:53 20.8 °C 1.6 °C 1019.5 hPa SSE 13.0 km/h 13.0 km/h 28 % 0.0 mm 46.0 W/m2 SCT
19:58 20.7 °C 2.0 °C 1019.9 hPa SSE 14.8 km/h 14.8 km/h 29 % 0.0 mm 35.0 W/m2 BKN
20:03 20.4 °C 1.8 °C 1019.9 hPa SE 18.5 km/h 18.5 km/h 29 % 0.0 mm 26.0 W/m2 BKN
20:08 20.3 °C 1.7 °C 1019.9 hPa SE 16.7 km/h 16.7 km/h 29 % 0.0 mm 16.0 W/m2 BKN
20:13 20.1 °C 1.9 °C 1019.9 hPa SSE 16.7 km/h 16.7 km/h 30 % 0.0 mm 14.0 W/m2 BKN
20:18 19.8 °C 1.7 °C 1019.9 hPa SE 13.0 km/h 13.0 km/h 30 % 0.0 mm 11.0 W/m2 BKN
20:23 19.6 °C 2.0 °C 1019.9 hPa SE 11.1 km/h 11.1 km/h 31 % 0.0 mm 9.0 W/m2 BKN
20:28 19.4 °C 2.3 °C 1019.9 hPa SE 14.8 km/h 14.8 km/h 32 % 0.0 mm 7.0 W/m2 BKN
20:33 19.1 °C 2.0 °C 1019.9 hPa SE 12.9 km/h 12.9 km/h 32 % 0.0 mm 5.0 W/m2 OVC
20:38 18.9 °C 2.3 °C 1019.9 hPa SSE 12.9 km/h 12.9 km/h 33 % 0.0 mm 0.0 W/m2 OVC
20:44 18.7 °C 2.5 °C 1019.9 hPa SSE 9.7 km/h 9.7 km/h 34 % 0.0 mm 0.0 W/m2 CLR
20:49 18.4 °C 2.7 °C 1020.2 hPa SSE 11.1 km/h 11.1 km/h 35 % 0.0 mm 0.0 W/m2 CLR
20:54 18.1 °C 2.8 °C 1020.2 hPa SSE 11.1 km/h 11.1 km/h 36 % 0.0 mm 0.0 W/m2 CLR
20:59 17.9 °C 2.6 °C 1020.2 hPa SSE 11.1 km/h 11.1 km/h 36 % 0.0 mm 0.0 W/m2 CLR
21:04 17.7 °C 2.4 °C 1020.2 hPa SE 13.0 km/h 13.0 km/h 36 % 0.0 mm 0.0 W/m2 CLR
21:09 17.6 °C 2.7 °C 1020.5 hPa SE 9.3 km/h 9.3 km/h 37 % 0.0 mm 0.0 W/m2 CLR
21:14 17.4 °C 2.6 °C 1020.5 hPa SSE 7.4 km/h 7.4 km/h 37 % 0.0 mm 0.0 W/m2 CLR
21:19 17.2 °C 2.8 °C 1020.5 hPa SE 9.7 km/h 9.7 km/h 38 % 0.0 mm 0.0 W/m2 CLR
21:24 17.1 °C 2.7 °C 1020.9 hPa SSE 9.7 km/h 9.7 km/h 38 % 0.0 mm 0.0 W/m2 CLR
21:29 17.0 °C 2.2 °C 1020.9 hPa SSE 13.0 km/h 13.0 km/h 37 % 0.0 mm 0.0 W/m2 CLR
21:34 16.9 °C 2.5 °C 1020.9 hPa SSE 11.3 km/h 11.3 km/h 38 % 0.0 mm 0.0 W/m2 CLR
21:44 16.9 °C 2.4 °C 1021.2 hPa South 5.6 km/h 5.6 km/h 38 % 0.0 mm 0.0 W/m2 CLR
21:49 16.8 °C 2.1 °C 1021.2 hPa SE 5.6 km/h 5.6 km/h 37 % 0.0 mm 0.0 W/m2 CLR
21:54 16.7 °C 2.3 °C 1021.2 hPa SE 6.4 km/h 6.4 km/h 38 % 0.0 mm 0.0 W/m2 CLR
21:59 16.3 °C 2.3 °C 1021.2 hPa ESE 6.4 km/h 6.4 km/h 39 % 0.0 mm 0.0 W/m2 CLR
22:04 15.9 °C 2.3 °C 1021.2 hPa SE 9.3 km/h 9.3 km/h 40 % 0.0 mm 0.0 W/m2 CLR
22:09 15.7 °C 2.1 °C 1021.2 hPa SE 7.4 km/h 7.4 km/h 40 % 0.0 mm 0.0 W/m2 CLR
22:14 15.5 °C 2.3 °C 1021.2 hPa ESE 7.4 km/h 7.4 km/h 41 % 0.0 mm 0.0 W/m2 CLR
22:19 15.3 °C 2.2 °C 1021.6 hPa SE 5.6 km/h 5.6 km/h 41 % 0.0 mm 0.0 W/m2 CLR
22:24 15.2 °C 2.4 °C 1021.6 hPa Calm     42 % 0.0 mm 0.0 W/m2 CLR
22:29 15.0 °C 2.2 °C 1021.6 hPa Calm     42 % 0.0 mm 0.0 W/m2 CLR
22:34 14.8 °C 2.3 °C 1021.6 hPa Calm     43 % 0.0 mm 0.0 W/m2 CLR
22:39 14.5 °C 2.1 °C 1021.6 hPa Calm     43 % 0.0 mm 0.0 W/m2 CLR
22:44 14.3 °C 2.6 °C 1021.9 hPa Calm     45 % 0.0 mm 0.0 W/m2 CLR
22:49 14.0 °C 2.2 °C 1021.9 hPa Calm     45 % 0.0 mm 0.0 W/m2 CLR
22:54 13.7 °C 2.3 °C 1021.9 hPa Calm     46 % 0.0 mm 0.0 W/m2 CLR
22:59 13.4 °C 2.0 °C 1021.9 hPa Calm     46 % 0.0 mm 0.0 W/m2 CLR
23:04 13.3 °C 1.9 °C 1021.9 hPa Calm     46 % 0.0 mm 0.0 W/m2 CLR
23:09 13.3 °C 1.9 °C 1021.9 hPa Calm     46 % 0.0 mm 0.0 W/m2 CLR
23:14 13.3 °C 2.2 °C 1021.9 hPa Calm     47 % 0.0 mm 0.0 W/m2 CLR
23:19 13.1 °C 2.1 °C 1022.2 hPa Calm     47 % 0.0 mm 0.0 W/m2 CLR
Lo Temps de Massalio
Compliments of Weather Underground - 768 kb